sensor_id;sensor_type;location;lat;lon;timestamp;temperature;humidity
51557;DHT22;38766;53.194;5.532;2023-02-18T00:00:26;8.30;99.90
51557;DHT22;38766;53.194;5.532;2023-02-18T00:02:52;8.40;99.90
51557;DHT22;38766;53.194;5.532;2023-02-18T00:05:20;8.40;99.90
51557;DHT22;38766;53.194;5.532;2023-02-18T00:07:46;8.40;99.90
51557;DHT22;38766;53.194;5.532;2023-02-18T00:10:13;8.40;99.90
51557;DHT22;38766;53.194;5.532;2023-02-18T00:12:39;8.40;99.90
51557;DHT22;38766;53.194;5.532;2023-02-18T00:15:05;8.40;99.90
51557;DHT22;38766;53.194;5.532;2023-02-18T00:17:31;8.40;99.90
51557;DHT22;38766;53.194;5.532;2023-02-18T00:19:58;8.30;99.90
51557;DHT22;38766;53.194;5.532;2023-02-18T00:22:24;8.40;99.90
51557;DHT22;38766;53.194;5.532;2023-02-18T00:24:49;8.40;99.90
51557;DHT22;38766;53.194;5.532;2023-02-18T00:27:16;8.40;99.90
51557;DHT22;38766;53.194;5.532;2023-02-18T00:29:41;8.40;99.90
51557;DHT22;38766;53.194;5.532;2023-02-18T00:32:07;8.40;99.90
51557;DHT22;38766;53.194;5.532;2023-02-18T00:34:33;8.40;99.90
51557;DHT22;38766;53.194;5.532;2023-02-18T00:36:59;8.30;99.90
51557;DHT22;38766;53.194;5.532;2023-02-18T00:39:24;8.40;99.90
51557;DHT22;38766;53.194;5.532;2023-02-18T00:41:50;8.30;99.90
51557;DHT22;38766;53.194;5.532;2023-02-18T00:44:15;8.40;99.90
51557;DHT22;38766;53.194;5.532;2023-02-18T00:46:41;8.40;99.90
51557;DHT22;38766;53.194;5.532;2023-02-18T00:49:07;8.40;99.90
51557;DHT22;38766;53.194;5.532;2023-02-18T00:51:33;8.40;99.90
51557;DHT22;38766;53.194;5.532;2023-02-18T00:53:59;8.40;99.90
51557;DHT22;38766;53.194;5.532;2023-02-18T00:56:24;8.40;99.90
51557;DHT22;38766;53.194;5.532;2023-02-18T00:58:50;8.40;99.90
51557;DHT22;38766;53.194;5.532;2023-02-18T01:01:17;8.40;99.90
51557;DHT22;38766;53.194;5.532;2023-02-18T01:03:43;8.40;99.90
51557;DHT22;38766;53.194;5.532;2023-02-18T01:06:12;8.50;99.90
51557;DHT22;38766;53.194;5.532;2023-02-18T01:08:39;8.50;99.90
51557;DHT22;38766;53.194;5.532;2023-02-18T01:11:07;8.50;99.90
51557;DHT22;38766;53.194;5.532;2023-02-18T01:13:34;8.50;99.90
51557;DHT22;38766;53.194;5.532;2023-02-18T01:16:00;8.40;99.90
51557;DHT22;38766;53.194;5.532;2023-02-18T01:18:26;8.50;99.90
51557;DHT22;38766;53.194;5.532;2023-02-18T01:20:52;8.50;99.90
51557;DHT22;38766;53.194;5.532;2023-02-18T01:23:18;8.50;99.90
51557;DHT22;38766;53.194;5.532;2023-02-18T01:25:44;8.50;99.90
51557;DHT22;38766;53.194;5.532;2023-02-18T01:28:12;8.50;99.90
51557;DHT22;38766;53.194;5.532;2023-02-18T01:30:38;8.50;99.90
51557;DHT22;38766;53.194;5.532;2023-02-18T01:33:04;8.50;99.90
51557;DHT22;38766;53.194;5.532;2023-02-18T01:35:30;8.50;99.90
51557;DHT22;38766;53.194;5.532;2023-02-18T01:37:56;8.50;99.90
51557;DHT22;38766;53.194;5.532;2023-02-18T01:40:24;8.50;99.90
51557;DHT22;38766;53.194;5.532;2023-02-18T01:42:51;8.50;99.90
51557;DHT22;38766;53.194;5.532;2023-02-18T01:48:10;8.50;99.90
51557;DHT22;38766;53.194;5.532;2023-02-18T01:50:42;8.50;99.90
51557;DHT22;38766;53.194;5.532;2023-02-18T01:53:08;8.50;99.90
51557;DHT22;38766;53.194;5.532;2023-02-18T01:55:35;8.50;99.90
51557;DHT22;38766;53.194;5.532;2023-02-18T01:58:01;8.40;99.90
51557;DHT22;38766;53.194;5.532;2023-02-18T02:00:27;8.40;99.90
51557;DHT22;38766;53.194;5.532;2023-02-18T02:02:53;8.40;99.90
51557;DHT22;38766;53.194;5.532;2023-02-18T02:05:21;8.40;99.90
51557;DHT22;38766;53.194;5.532;2023-02-18T02:07:50;8.40;99.90
51557;DHT22;38766;53.194;5.532;2023-02-18T02:10:16;8.40;99.90
51557;DHT22;38766;53.194;5.532;2023-02-18T02:32:00;8.40;99.90
51557;DHT22;38766;53.194;5.532;2023-02-18T02:46:01;8.50;99.90
51557;DHT22;38766;53.194;5.532;2023-02-18T02:54:20;8.60;99.90
51557;DHT22;38766;53.194;5.532;2023-02-18T02:56:46;8.60;99.90
51557;DHT22;38766;53.194;5.532;2023-02-18T02:59:18;8.60;99.90
51557;DHT22;38766;53.194;5.532;2023-02-18T03:18:22;8.70;99.90
51557;DHT22;38766;53.194;5.532;2023-02-18T03:21:04;8.70;99.90
51557;DHT22;38766;53.194;5.532;2023-02-18T03:23:37;8.70;99.90
51557;DHT22;38766;53.194;5.532;2023-02-18T03:26:05;8.70;99.90
51557;DHT22;38766;53.194;5.532;2023-02-18T03:28:31;8.70;99.90
51557;DHT22;38766;53.194;5.532;2023-02-18T03:31:11;8.70;99.90
51557;DHT22;38766;53.194;5.532;2023-02-18T03:34:00;8.70;99.90
51557;DHT22;38766;53.194;5.532;2023-02-18T03:36:27;8.80;99.90
51557;DHT22;38766;53.194;5.532;2023-02-18T03:38:59;8.80;99.90
51557;DHT22;38766;53.194;5.532;2023-02-18T03:41:25;8.80;99.90
51557;DHT22;38766;53.194;5.532;2023-02-18T03:43:53;8.80;99.90
51557;DHT22;38766;53.194;5.532;2023-02-18T03:46:20;8.80;99.90
51557;DHT22;38766;53.194;5.532;2023-02-18T03:48:46;8.80;99.90
51557;DHT22;38766;53.194;5.532;2023-02-18T03:51:12;8.80;99.90
51557;DHT22;38766;53.194;5.532;2023-02-18T03:53:37;8.80;99.90
51557;DHT22;38766;53.194;5.532;2023-02-18T03:56:03;8.80;99.90
51557;DHT22;38766;53.194;5.532;2023-02-18T03:58:29;8.80;99.90
51557;DHT22;38766;53.194;5.532;2023-02-18T04:00:55;8.80;99.90
51557;DHT22;38766;53.194;5.532;2023-02-18T04:03:20;8.80;99.90
51557;DHT22;38766;53.194;5.532;2023-02-18T04:05:46;8.80;99.90
51557;DHT22;38766;53.194;5.532;2023-02-18T04:08:12;8.80;99.90
51557;DHT22;38766;53.194;5.532;2023-02-18T04:10:38;8.70;99.90
51557;DHT22;38766;53.194;5.532;2023-02-18T04:13:09;8.80;99.90
51557;DHT22;38766;53.194;5.532;2023-02-18T04:15:35;8.70;99.90
51557;DHT22;38766;53.194;5.532;2023-02-18T04:18:04;8.70;99.90
51557;DHT22;38766;53.194;5.532;2023-02-18T04:20:30;8.70;99.90
51557;DHT22;38766;53.194;5.532;2023-02-18T04:22:56;8.70;99.90
51557;DHT22;38766;53.194;5.532;2023-02-18T04:25:22;8.70;99.90
51557;DHT22;38766;53.194;5.532;2023-02-18T04:27:47;8.60;99.90
51557;DHT22;38766;53.194;5.532;2023-02-18T04:30:13;8.70;99.90
51557;DHT22;38766;53.194;5.532;2023-02-18T04:32:39;8.60;99.90
51557;DHT22;38766;53.194;5.532;2023-02-18T04:35:07;8.60;99.90
51557;DHT22;38766;53.194;5.532;2023-02-18T04:37:33;8.70;99.90
51557;DHT22;38766;53.194;5.532;2023-02-18T04:39:59;8.70;99.90
51557;DHT22;38766;53.194;5.532;2023-02-18T04:42:25;8.70;99.90
51557;DHT22;38766;53.194;5.532;2023-02-18T04:44:50;8.70;99.90
51557;DHT22;38766;53.194;5.532;2023-02-18T04:47:16;8.70;99.90
51557;DHT22;38766;53.194;5.532;2023-02-18T04:49:42;8.70;99.90
51557;DHT22;38766;53.194;5.532;2023-02-18T04:52:07;8.70;99.90
51557;DHT22;38766;53.194;5.532;2023-02-18T04:54:33;8.70;99.90
51557;DHT22;38766;53.194;5.532;2023-02-18T04:56:59;8.60;99.90
51557;DHT22;38766;53.194;5.532;2023-02-18T04:59:27;8.70;99.90
51557;DHT22;38766;53.194;5.532;2023-02-18T05:01:53;8.70;99.90
51557;DHT22;38766;53.194;5.532;2023-02-18T05:04:18;8.70;99.90
51557;DHT22;38766;53.194;5.532;2023-02-18T05:06:44;8.80;99.90
51557;DHT22;38766;53.194;5.532;2023-02-18T05:09:10;8.80;99.90
51557;DHT22;38766;53.194;5.532;2023-02-18T05:11:36;8.80;99.90
51557;DHT22;38766;53.194;5.532;2023-02-18T05:14:02;8.80;99.90
51557;DHT22;38766;53.194;5.532;2023-02-18T05:16:31;8.90;99.90
51557;DHT22;38766;53.194;5.532;2023-02-18T05:18:57;8.90;99.90
51557;DHT22;38766;53.194;5.532;2023-02-18T05:21:22;8.80;99.90
51557;DHT22;38766;53.194;5.532;2023-02-18T05:23:48;8.80;99.90
51557;DHT22;38766;53.194;5.532;2023-02-18T05:26:14;8.80;99.90
51557;DHT22;38766;53.194;5.532;2023-02-18T05:28:39;8.70;99.90
51557;DHT22;38766;53.194;5.532;2023-02-18T05:31:05;8.70;99.90
51557;DHT22;38766;53.194;5.532;2023-02-18T05:33:30;8.80;99.90
51557;DHT22;38766;53.194;5.532;2023-02-18T05:35:56;8.70;99.90
51557;DHT22;38766;53.194;5.532;2023-02-18T05:38:22;8.80;99.90
51557;DHT22;38766;53.194;5.532;2023-02-18T05:40:48;8.90;99.90
51557;DHT22;38766;53.194;5.532;2023-02-18T05:43:14;8.90;99.90
51557;DHT22;38766;53.194;5.532;2023-02-18T05:45:40;8.90;99.90
51557;DHT22;38766;53.194;5.532;2023-02-18T05:48:05;8.90;99.90
51557;DHT22;38766;53.194;5.532;2023-02-18T05:50:31;9.00;99.90
51557;DHT22;38766;53.194;5.532;2023-02-18T05:52:57;9.00;99.90
51557;DHT22;38766;53.194;5.532;2023-02-18T05:55:23;9.00;99.90
51557;DHT22;38766;53.194;5.532;2023-02-18T05:57:49;9.00;99.90
51557;DHT22;38766;53.194;5.532;2023-02-18T06:00:15;9.00;99.90
51557;DHT22;38766;53.194;5.532;2023-02-18T06:02:41;9.00;99.90
51557;DHT22;38766;53.194;5.532;2023-02-18T06:05:07;9.00;99.90
51557;DHT22;38766;53.194;5.532;2023-02-18T06:07:36;9.00;99.90
51557;DHT22;38766;53.194;5.532;2023-02-18T06:10:03;9.10;99.90
51557;DHT22;38766;53.194;5.532;2023-02-18T06:12:29;9.10;99.90
51557;DHT22;38766;53.194;5.532;2023-02-18T06:14:54;9.10;99.90
51557;DHT22;38766;53.194;5.532;2023-02-18T06:17:20;9.10;99.90
51557;DHT22;38766;53.194;5.532;2023-02-18T06:19:47;9.10;99.90
51557;DHT22;38766;53.194;5.532;2023-02-18T06:22:13;9.10;99.90
51557;DHT22;38766;53.194;5.532;2023-02-18T06:24:38;9.10;99.90
51557;DHT22;38766;53.194;5.532;2023-02-18T06:27:04;9.10;99.90
51557;DHT22;38766;53.194;5.532;2023-02-18T06:29:30;9.20;99.90
51557;DHT22;38766;53.194;5.532;2023-02-18T06:31:57;9.20;99.90
51557;DHT22;38766;53.194;5.532;2023-02-18T06:34:22;9.20;99.90
51557;DHT22;38766;53.194;5.532;2023-02-18T06:36:48;9.20;99.90
51557;DHT22;38766;53.194;5.532;2023-02-18T06:39:14;9.20;99.90
51557;DHT22;38766;53.194;5.532;2023-02-18T06:41:39;9.20;99.90
51557;DHT22;38766;53.194;5.532;2023-02-18T06:44:08;9.20;99.90
51557;DHT22;38766;53.194;5.532;2023-02-18T06:46:36;9.20;99.90
51557;DHT22;38766;53.194;5.532;2023-02-18T06:49:02;9.20;99.90
51557;DHT22;38766;53.194;5.532;2023-02-18T06:51:28;9.20;99.90
51557;DHT22;38766;53.194;5.532;2023-02-18T06:53:59;9.30;99.90
51557;DHT22;38766;53.194;5.532;2023-02-18T06:56:28;9.30;99.90
51557;DHT22;38766;53.194;5.532;2023-02-18T06:58:57;9.20;99.90
51557;DHT22;38766;53.194;5.532;2023-02-18T07:01:22;9.20;99.90
51557;DHT22;38766;53.194;5.532;2023-02-18T07:03:48;9.20;99.90
51557;DHT22;38766;53.194;5.532;2023-02-18T07:06:14;9.20;99.90
51557;DHT22;38766;53.194;5.532;2023-02-18T07:08:39;9.20;99.90
51557;DHT22;38766;53.194;5.532;2023-02-18T07:11:06;9.20;99.90
51557;DHT22;38766;53.194;5.532;2023-02-18T07:13:31;9.20;99.90
51557;DHT22;38766;53.194;5.532;2023-02-18T07:15:57;9.20;99.90
51557;DHT22;38766;53.194;5.532;2023-02-18T07:18:22;9.20;99.90
51557;DHT22;38766;53.194;5.532;2023-02-18T07:20:48;9.20;99.90
51557;DHT22;38766;53.194;5.532;2023-02-18T07:23:14;9.20;99.90
51557;DHT22;38766;53.194;5.532;2023-02-18T07:25:39;9.20;99.90
51557;DHT22;38766;53.194;5.532;2023-02-18T07:28:05;9.20;99.90
51557;DHT22;38766;53.194;5.532;2023-02-18T07:30:31;9.10;99.90
51557;DHT22;38766;53.194;5.532;2023-02-18T07:32:56;9.10;99.90
51557;DHT22;38766;53.194;5.532;2023-02-18T07:35:22;9.20;99.90
51557;DHT22;38766;53.194;5.532;2023-02-18T07:37:49;9.10;99.90
51557;DHT22;38766;53.194;5.532;2023-02-18T07:40:21;9.20;99.90
51557;DHT22;38766;53.194;5.532;2023-02-18T07:42:53;9.10;99.90
51557;DHT22;38766;53.194;5.532;2023-02-18T07:45:18;9.10;99.90
51557;DHT22;38766;53.194;5.532;2023-02-18T07:47:44;9.10;99.90
51557;DHT22;38766;53.194;5.532;2023-02-18T07:50:10;9.20;99.90
51557;DHT22;38766;53.194;5.532;2023-02-18T07:52:36;9.10;99.90
51557;DHT22;38766;53.194;5.532;2023-02-18T07:55:01;9.10;99.90
51557;DHT22;38766;53.194;5.532;2023-02-18T07:57:27;9.10;99.90
51557;DHT22;38766;53.194;5.532;2023-02-18T07:59:52;9.10;99.90
51557;DHT22;38766;53.194;5.532;2023-02-18T08:02:20;9.10;99.90
51557;DHT22;38766;53.194;5.532;2023-02-18T08:04:47;9.10;99.90
51557;DHT22;38766;53.194;5.532;2023-02-18T08:07:14;9.10;99.90
51557;DHT22;38766;53.194;5.532;2023-02-18T08:09:41;9.10;99.90
51557;DHT22;38766;53.194;5.532;2023-02-18T08:12:07;9.10;99.90
51557;DHT22;38766;53.194;5.532;2023-02-18T08:14:33;9.00;99.90
51557;DHT22;38766;53.194;5.532;2023-02-18T08:16:58;9.10;99.90
51557;DHT22;38766;53.194;5.532;2023-02-18T08:19:24;9.00;99.90
51557;DHT22;38766;53.194;5.532;2023-02-18T08:21:50;9.00;99.90
51557;DHT22;38766;53.194;5.532;2023-02-18T08:24:15;9.00;99.90
51557;DHT22;38766;53.194;5.532;2023-02-18T08:26:41;9.00;99.90
51557;DHT22;38766;53.194;5.532;2023-02-18T08:29:07;9.00;99.90
51557;DHT22;38766;53.194;5.532;2023-02-18T08:31:32;9.00;99.90
51557;DHT22;38766;53.194;5.532;2023-02-18T08:33:59;9.00;99.90
51557;DHT22;38766;53.194;5.532;2023-02-18T08:36:28;9.00;99.90
51557;DHT22;38766;53.194;5.532;2023-02-18T08:38:54;9.00;99.90
51557;DHT22;38766;53.194;5.532;2023-02-18T08:41:19;9.10;99.90
51557;DHT22;38766;53.194;5.532;2023-02-18T08:43:46;9.10;99.90
51557;DHT22;38766;53.194;5.532;2023-02-18T08:46:13;9.10;99.90
51557;DHT22;38766;53.194;5.532;2023-02-18T08:48:39;9.10;99.90
51557;DHT22;38766;53.194;5.532;2023-02-18T08:51:19;9.10;99.90
51557;DHT22;38766;53.194;5.532;2023-02-18T08:53:46;9.10;99.90
51557;DHT22;38766;53.194;5.532;2023-02-18T08:56:12;9.10;99.90
51557;DHT22;38766;53.194;5.532;2023-02-18T08:58:39;9.20;99.90
51557;DHT22;38766;53.194;5.532;2023-02-18T09:01:10;9.20;99.90
51557;DHT22;38766;53.194;5.532;2023-02-18T09:03:36;9.20;99.90
51557;DHT22;38766;53.194;5.532;2023-02-18T09:06:02;9.20;99.90
51557;DHT22;38766;53.194;5.532;2023-02-18T09:08:28;9.20;99.90
51557;DHT22;38766;53.194;5.532;2023-02-18T09:10:58;9.30;99.90
51557;DHT22;38766;53.194;5.532;2023-02-18T09:13:24;9.20;99.90
51557;DHT22;38766;53.194;5.532;2023-02-18T09:16:07;9.20;99.90
51557;DHT22;38766;53.194;5.532;2023-02-18T09:18:34;9.20;99.90
51557;DHT22;38766;53.194;5.532;2023-02-18T09:21:00;9.20;99.90
51557;DHT22;38766;53.194;5.532;2023-02-18T09:23:28;9.20;99.90
51557;DHT22;38766;53.194;5.532;2023-02-18T09:25:56;9.20;99.90
51557;DHT22;38766;53.194;5.532;2023-02-18T09:28:22;9.30;99.90
51557;DHT22;38766;53.194;5.532;2023-02-18T09:30:48;9.20;99.90
51557;DHT22;38766;53.194;5.532;2023-02-18T09:33:13;9.30;99.90
51557;DHT22;38766;53.194;5.532;2023-02-18T09:35:44;9.30;99.90
51557;DHT22;38766;53.194;5.532;2023-02-18T09:38:12;9.30;99.90
51557;DHT22;38766;53.194;5.532;2023-02-18T09:40:43;9.40;99.90
51557;DHT22;38766;53.194;5.532;2023-02-18T09:43:28;9.40;99.90
51557;DHT22;38766;53.194;5.532;2023-02-18T09:45:54;9.40;99.90
51557;DHT22;38766;53.194;5.532;2023-02-18T09:48:31;9.40;99.90
51557;DHT22;38766;53.194;5.532;2023-02-18T09:50:57;9.50;99.90
51557;DHT22;38766;53.194;5.532;2023-02-18T09:53:24;9.60;99.90
51557;DHT22;38766;53.194;5.532;2023-02-18T09:55:55;9.80;99.90
51557;DHT22;38766;53.194;5.532;2023-02-18T09:58:28;10.00;99.90
51557;DHT22;38766;53.194;5.532;2023-02-18T10:01:03;10.20;99.90
51557;DHT22;38766;53.194;5.532;2023-02-18T10:03:29;10.40;99.90
51557;DHT22;38766;53.194;5.532;2023-02-18T10:06:17;10.60;99.90
51557;DHT22;38766;53.194;5.532;2023-02-18T10:08:47;10.80;99.90
51557;DHT22;38766;53.194;5.532;2023-02-18T10:11:34;10.80;99.90
51557;DHT22;38766;53.194;5.532;2023-02-18T10:14:02;11.00;99.90
51557;DHT22;38766;53.194;5.532;2023-02-18T10:16:29;11.00;99.90
51557;DHT22;38766;53.194;5.532;2023-02-18T10:21:40;11.10;99.90
51557;DHT22;38766;53.194;5.532;2023-02-18T10:26:50;11.20;99.90
51557;DHT22;38766;53.194;5.532;2023-02-18T10:29:18;11.30;99.90
51557;DHT22;38766;53.194;5.532;2023-02-18T10:31:54;11.40;99.90
51557;DHT22;38766;53.194;5.532;2023-02-18T10:45:35;11.30;99.90
51557;DHT22;38766;53.194;5.532;2023-02-18T10:50:40;11.40;99.90
51557;DHT22;38766;53.194;5.532;2023-02-18T10:55:41;11.30;99.90
51557;DHT22;38766;53.194;5.532;2023-02-18T10:58:46;11.40;99.90
51557;DHT22;38766;53.194;5.532;2023-02-18T11:01:19;11.50;99.90
51557;DHT22;38766;53.194;5.532;2023-02-18T11:03:46;11.70;99.90
51557;DHT22;38766;53.194;5.532;2023-02-18T11:06:19;11.70;99.90
51557;DHT22;38766;53.194;5.532;2023-02-18T11:08:46;11.80;99.90
51557;DHT22;38766;53.194;5.532;2023-02-18T11:11:38;11.90;99.90
51557;DHT22;38766;53.194;5.532;2023-02-18T11:14:06;11.90;99.90
51557;DHT22;38766;53.194;5.532;2023-02-18T11:16:40;11.90;99.90
51557;DHT22;38766;53.194;5.532;2023-02-18T11:19:35;11.90;99.90
51557;DHT22;38766;53.194;5.532;2023-02-18T11:22:22;11.90;99.90
51557;DHT22;38766;53.194;5.532;2023-02-18T11:24:52;11.90;99.90
51557;DHT22;38766;53.194;5.532;2023-02-18T11:30:25;11.90;99.90
51557;DHT22;38766;53.194;5.532;2023-02-18T11:35:51;11.80;99.90
51557;DHT22;38766;53.194;5.532;2023-02-18T11:41:10;11.70;99.90
51557;DHT22;38766;53.194;5.532;2023-02-18T11:43:41;11.60;99.90
51557;DHT22;38766;53.194;5.532;2023-02-18T11:48:38;11.50;99.90
51557;DHT22;38766;53.194;5.532;2023-02-18T11:51:04;11.50;99.90
51557;DHT22;38766;53.194;5.532;2023-02-18T11:53:35;11.50;99.90
51557;DHT22;38766;53.194;5.532;2023-02-18T11:56:04;11.60;99.90
51557;DHT22;38766;53.194;5.532;2023-02-18T11:58:37;11.70;99.90
51557;DHT22;38766;53.194;5.532;2023-02-18T12:01:05;11.70;99.90
51557;DHT22;38766;53.194;5.532;2023-02-18T12:03:41;11.80;99.90
51557;DHT22;38766;53.194;5.532;2023-02-18T12:06:21;11.80;99.90
51557;DHT22;38766;53.194;5.532;2023-02-18T12:08:54;11.80;99.90
51557;DHT22;38766;53.194;5.532;2023-02-18T12:11:34;11.80;99.90
51557;DHT22;38766;53.194;5.532;2023-02-18T12:14:01;11.70;99.90
51557;DHT22;38766;53.194;5.532;2023-02-18T12:16:45;11.60;99.90
51557;DHT22;38766;53.194;5.532;2023-02-18T12:19:21;11.60;99.90
51557;DHT22;38766;53.194;5.532;2023-02-18T12:22:04;11.60;99.90
51557;DHT22;38766;53.194;5.532;2023-02-18T12:27:29;11.50;99.90
51557;DHT22;38766;53.194;5.532;2023-02-18T12:35:29;11.30;99.90
51557;DHT22;38766;53.194;5.532;2023-02-18T12:49:13;11.20;99.90
51557;DHT22;38766;53.194;5.532;2023-02-18T12:57:21;11.10;99.90
51557;DHT22;38766;53.194;5.532;2023-02-18T13:05:37;11.10;99.90
51557;DHT22;38766;53.194;5.532;2023-02-18T13:11:03;11.10;99.90
51557;DHT22;38766;53.194;5.532;2023-02-18T13:13:37;11.10;99.90
51557;DHT22;38766;53.194;5.532;2023-02-18T13:16:12;11.20;99.90
51557;DHT22;38766;53.194;5.532;2023-02-18T13:18:46;11.20;99.90
51557;DHT22;38766;53.194;5.532;2023-02-18T13:21:14;11.30;99.90
51557;DHT22;38766;53.194;5.532;2023-02-18T13:26:16;11.30;99.90
51557;DHT22;38766;53.194;5.532;2023-02-18T13:34:20;11.40;99.90
51557;DHT22;38766;53.194;5.532;2023-02-18T13:39:52;11.30;99.90
51557;DHT22;38766;53.194;5.532;2023-02-18T13:42:31;11.30;99.90
51557;DHT22;38766;53.194;5.532;2023-02-18T13:47:43;11.30;99.90
51557;DHT22;38766;53.194;5.532;2023-02-18T13:57:58;11.10;99.90
51557;DHT22;38766;53.194;5.532;2023-02-18T14:00:34;11.10;99.90
51557;DHT22;38766;53.194;5.532;2023-02-18T14:03:31;11.10;99.90
51557;DHT22;38766;53.194;5.532;2023-02-18T14:05:58;11.10;99.90
51557;DHT22;38766;53.194;5.532;2023-02-18T14:08:38;11.10;99.90
51557;DHT22;38766;53.194;5.532;2023-02-18T14:13:54;11.00;99.90
51557;DHT22;38766;53.194;5.532;2023-02-18T14:17:12;11.00;99.90
51557;DHT22;38766;53.194;5.532;2023-02-18T14:19:38;11.00;99.90
51557;DHT22;38766;53.194;5.532;2023-02-18T14:22:33;10.90;99.90
51557;DHT22;38766;53.194;5.532;2023-02-18T14:27:34;10.90;99.90
51557;DHT22;38766;53.194;5.532;2023-02-18T14:30:17;10.90;99.90
51557;DHT22;38766;53.194;5.532;2023-02-18T14:32:44;10.90;99.90
51557;DHT22;38766;53.194;5.532;2023-02-18T14:35:29;10.90;99.90
51557;DHT22;38766;53.194;5.532;2023-02-18T14:40:50;10.80;99.90
51557;DHT22;38766;53.194;5.532;2023-02-18T14:51:34;10.70;99.90
51557;DHT22;38766;53.194;5.532;2023-02-18T14:54:12;10.70;99.90
51557;DHT22;38766;53.194;5.532;2023-02-18T14:57:02;10.70;99.90
51557;DHT22;38766;53.194;5.532;2023-02-18T14:59:33;10.70;99.90
51557;DHT22;38766;53.194;5.532;2023-02-18T15:01:59;10.70;99.90
51557;DHT22;38766;53.194;5.532;2023-02-18T15:04:25;10.70;99.90
51557;DHT22;38766;53.194;5.532;2023-02-18T15:07:02;10.70;99.90
51557;DHT22;38766;53.194;5.532;2023-02-18T15:09:28;10.70;99.90
51557;DHT22;38766;53.194;5.532;2023-02-18T15:12:01;10.60;99.90
51557;DHT22;38766;53.194;5.532;2023-02-18T15:14:32;10.60;99.90
51557;DHT22;38766;53.194;5.532;2023-02-18T15:16:59;10.60;99.90
51557;DHT22;38766;53.194;5.532;2023-02-18T15:19:27;10.60;99.90
51557;DHT22;38766;53.194;5.532;2023-02-18T15:21:55;10.60;99.90
51557;DHT22;38766;53.194;5.532;2023-02-18T15:27:10;10.60;99.90
51557;DHT22;38766;53.194;5.532;2023-02-18T15:29:37;10.50;99.90
51557;DHT22;38766;53.194;5.532;2023-02-18T15:32:19;10.50;99.90
51557;DHT22;38766;53.194;5.532;2023-02-18T15:34:48;10.50;99.90
51557;DHT22;38766;53.194;5.532;2023-02-18T15:37:14;10.50;99.90
51557;DHT22;38766;53.194;5.532;2023-02-18T15:39:40;10.50;99.90
51557;DHT22;38766;53.194;5.532;2023-02-18T15:42:29;10.50;99.90
51557;DHT22;38766;53.194;5.532;2023-02-18T15:45:03;10.50;99.90
51557;DHT22;38766;53.194;5.532;2023-02-18T15:47:30;10.40;99.90
51557;DHT22;38766;53.194;5.532;2023-02-18T15:49:58;10.40;99.90
51557;DHT22;38766;53.194;5.532;2023-02-18T15:52:33;10.40;99.90
51557;DHT22;38766;53.194;5.532;2023-02-18T15:55:38;10.40;99.90
51557;DHT22;38766;53.194;5.532;2023-02-18T15:58:10;10.30;99.90
51557;DHT22;38766;53.194;5.532;2023-02-18T16:00:46;10.30;99.90
51557;DHT22;38766;53.194;5.532;2023-02-18T16:03:19;10.30;99.90
51557;DHT22;38766;53.194;5.532;2023-02-18T16:05:45;10.30;99.90
51557;DHT22;38766;53.194;5.532;2023-02-18T16:08:26;10.30;99.90
51557;DHT22;38766;53.194;5.532;2023-02-18T16:10:55;10.20;99.90
51557;DHT22;38766;53.194;5.532;2023-02-18T16:13:24;10.20;99.90
51557;DHT22;38766;53.194;5.532;2023-02-18T16:15:51;10.20;99.90
51557;DHT22;38766;53.194;5.532;2023-02-18T16:18:35;10.20;99.90
51557;DHT22;38766;53.194;5.532;2023-02-18T16:21:21;10.20;99.90
51557;DHT22;38766;53.194;5.532;2023-02-18T16:23:56;10.20;99.90
51557;DHT22;38766;53.194;5.532;2023-02-18T16:26:40;10.20;99.90
51557;DHT22;38766;53.194;5.532;2023-02-18T16:32:09;10.10;99.90
51557;DHT22;38766;53.194;5.532;2023-02-18T16:34:35;10.10;99.90
51557;DHT22;38766;53.194;5.532;2023-02-18T16:37:01;10.10;99.90
51557;DHT22;38766;53.194;5.532;2023-02-18T16:39:48;10.00;99.90
51557;DHT22;38766;53.194;5.532;2023-02-18T16:42:14;10.00;99.90
51557;DHT22;38766;53.194;5.532;2023-02-18T16:44:39;10.00;99.90
51557;DHT22;38766;53.194;5.532;2023-02-18T16:47:06;10.00;99.90
51557;DHT22;38766;53.194;5.532;2023-02-18T16:49:33;10.00;99.90
51557;DHT22;38766;53.194;5.532;2023-02-18T16:52:00;9.90;99.90
51557;DHT22;38766;53.194;5.532;2023-02-18T16:54:30;9.90;99.90
51557;DHT22;38766;53.194;5.532;2023-02-18T16:56:55;9.90;99.90
51557;DHT22;38766;53.194;5.532;2023-02-18T16:59:21;9.90;99.90
51557;DHT22;38766;53.194;5.532;2023-02-18T17:01:47;9.90;99.90
51557;DHT22;38766;53.194;5.532;2023-02-18T17:04:14;9.90;99.90
51557;DHT22;38766;53.194;5.532;2023-02-18T17:06:41;9.90;99.90
51557;DHT22;38766;53.194;5.532;2023-02-18T17:09:16;9.90;99.90
51557;DHT22;38766;53.194;5.532;2023-02-18T17:11:44;9.80;99.90
51557;DHT22;38766;53.194;5.532;2023-02-18T17:14:14;9.80;99.90
51557;DHT22;38766;53.194;5.532;2023-02-18T17:16:43;9.80;99.90
51557;DHT22;38766;53.194;5.532;2023-02-18T17:19:09;9.80;99.90
51557;DHT22;38766;53.194;5.532;2023-02-18T17:21:34;9.80;99.90
51557;DHT22;38766;53.194;5.532;2023-02-18T17:24:00;9.80;99.90
51557;DHT22;38766;53.194;5.532;2023-02-18T17:26:28;9.80;99.90
51557;DHT22;38766;53.194;5.532;2023-02-18T17:28:55;9.80;99.90
51557;DHT22;38766;53.194;5.532;2023-02-18T17:31:27;9.80;99.90
51557;DHT22;38766;53.194;5.532;2023-02-18T17:33:54;9.80;99.90
51557;DHT22;38766;53.194;5.532;2023-02-18T17:36:20;9.80;99.90
51557;DHT22;38766;53.194;5.532;2023-02-18T17:38:46;9.70;99.90
51557;DHT22;38766;53.194;5.532;2023-02-18T17:41:12;9.80;99.90
51557;DHT22;38766;53.194;5.532;2023-02-18T17:43:41;9.70;99.90
51557;DHT22;38766;53.194;5.532;2023-02-18T17:46:21;9.70;99.90
51557;DHT22;38766;53.194;5.532;2023-02-18T17:48:47;9.70;99.90
51557;DHT22;38766;53.194;5.532;2023-02-18T17:51:24;9.70;99.90
51557;DHT22;38766;53.194;5.532;2023-02-18T17:53:50;9.70;99.90
51557;DHT22;38766;53.194;5.532;2023-02-18T17:56:16;9.70;99.90
51557;DHT22;38766;53.194;5.532;2023-02-18T17:58:41;9.70;99.90
51557;DHT22;38766;53.194;5.532;2023-02-18T18:01:09;9.70;99.90
51557;DHT22;38766;53.194;5.532;2023-02-18T18:03:35;9.70;99.90
51557;DHT22;38766;53.194;5.532;2023-02-18T18:06:00;9.70;99.90
51557;DHT22;38766;53.194;5.532;2023-02-18T18:08:29;9.70;99.90
51557;DHT22;38766;53.194;5.532;2023-02-18T18:10:58;9.70;99.90
51557;DHT22;38766;53.194;5.532;2023-02-18T18:13:29;9.70;99.90
51557;DHT22;38766;53.194;5.532;2023-02-18T18:15:57;9.70;99.90
51557;DHT22;38766;53.194;5.532;2023-02-18T18:18:23;9.70;99.90
51557;DHT22;38766;53.194;5.532;2023-02-18T18:20:53;9.70;99.90
51557;DHT22;38766;53.194;5.532;2023-02-18T18:23:21;9.70;99.90
51557;DHT22;38766;53.194;5.532;2023-02-18T18:25:53;9.70;99.90
51557;DHT22;38766;53.194;5.532;2023-02-18T18:28:19;9.70;99.90
51557;DHT22;38766;53.194;5.532;2023-02-18T18:30:47;9.70;99.90
51557;DHT22;38766;53.194;5.532;2023-02-18T18:33:28;9.70;99.90
51557;DHT22;38766;53.194;5.532;2023-02-18T18:35:55;9.70;99.90
51557;DHT22;38766;53.194;5.532;2023-02-18T18:38:25;9.70;99.90
51557;DHT22;38766;53.194;5.532;2023-02-18T18:40:52;9.70;99.90